createdAt,value
2023-05-12T00:01:26.432Z,100548.94
2023-05-12T00:03:57.300Z,100544.22
2023-05-12T00:06:27.898Z,100546.59
2023-05-12T00:09:00.557Z,100547.38
2023-05-12T00:11:30.846Z,100548.28
2023-05-12T00:14:00.888Z,100561.75
2023-05-12T00:16:30.920Z,100563.34
2023-05-12T00:19:00.982Z,100568.06
2023-05-12T00:21:31.268Z,100565.75
2023-05-12T00:24:04.295Z,100570.91
2023-05-12T00:26:34.737Z,100574.06
2023-05-12T00:29:05.677Z,100569.72
2023-05-12T00:31:36.913Z,100570.50
2023-05-12T00:34:07.524Z,100575.25
2023-05-12T00:36:37.550Z,100569.28
2023-05-12T00:39:10.222Z,100569.34
2023-05-12T00:41:40.806Z,100574.47
2023-05-12T00:44:10.687Z,100571.66
2023-05-12T00:46:44.760Z,100579.97
2023-05-12T00:49:15.535Z,100576.84
2023-05-12T00:51:46.258Z,100579.63
2023-05-12T00:54:19.934Z,100579.22
2023-05-12T00:56:51.381Z,100582.78
2023-05-12T00:59:24.462Z,100578.47
2023-05-12T01:01:56.109Z,100577.25
2023-05-12T01:04:26.390Z,100576.88
2023-05-12T01:07:01.524Z,100584.84
2023-05-12T01:09:34.291Z,100582.44
2023-05-12T01:12:07.442Z,100577.69
2023-05-12T01:14:38.341Z,100583.69
2023-05-12T01:17:16.665Z,100592.44
2023-05-12T01:19:54.737Z,100595.22
2023-05-12T01:22:25.394Z,100601.19
2023-05-12T01:25:01.268Z,100584.09
2023-05-12T01:27:37.664Z,100597.22
2023-05-12T01:30:09.726Z,100592.84
2023-05-12T01:32:42.056Z,100598.41
2023-05-12T01:35:12.566Z,100600.78
2023-05-12T01:37:48.701Z,100608.38
2023-05-12T01:40:20.964Z,100619.88
2023-05-12T01:42:54.536Z,100641.31
2023-05-12T01:45:25.229Z,100627.84
2023-05-12T01:47:57.063Z,100631.84
2023-05-12T01:50:27.502Z,100633.03
2023-05-12T01:52:59.819Z,100631.44
2023-05-12T01:55:30.348Z,100625.06
2023-05-12T01:58:04.364Z,100644.94
2023-05-12T02:00:35.018Z,100632.22
2023-05-12T02:03:07.016Z,100645.31
2023-05-12T02:05:38.170Z,100635.41
2023-05-12T02:08:09.312Z,100644.16
2023-05-12T02:10:39.555Z,100641.38
2023-05-12T02:13:14.817Z,100646.91
2023-05-12T02:15:45.955Z,100644.94
2023-05-12T02:18:16.682Z,100643.75
2023-05-12T02:20:59.798Z,100649.31
2023-05-12T02:23:31.640Z,100633.03
2023-05-12T02:26:03.372Z,100637.41
2023-05-12T02:28:36.894Z,100642.94
2023-05-12T02:31:08.566Z,100642.16
2023-05-12T02:33:38.917Z,100633.41
2023-05-12T02:36:10.057Z,100645.31
2023-05-12T02:38:43.123Z,100637.38
2023-05-12T02:41:13.386Z,100629.44
2023-05-12T02:43:46.337Z,100628.66
2023-05-12T02:46:18.230Z,100639.38
2023-05-12T02:48:48.460Z,100636.59
2023-05-12T02:51:18.827Z,100627.06
2023-05-12T02:53:49.199Z,100632.59
2023-05-12T02:56:21.147Z,100656.03
2023-05-12T02:58:54.375Z,100634.22
2023-05-12T03:01:25.947Z,100633.41
2023-05-12T03:03:56.626Z,100643.72
2023-05-12T03:06:26.999Z,100634.19
2023-05-12T03:08:57.708Z,100641.75
2023-05-12T03:11:27.651Z,100642.94
2023-05-12T03:14:00.339Z,100631.81
2023-05-12T03:16:31.341Z,100628.63
2023-05-12T03:19:01.705Z,100644.13
2023-05-12T03:21:32.584Z,100642.53
2023-05-12T03:24:02.769Z,100650.47
2023-05-12T03:26:33.551Z,100652.88
2023-05-12T03:29:06.475Z,100660.00
2023-05-12T03:31:37.109Z,100650.06
2023-05-12T03:34:07.765Z,100666.34
2023-05-12T03:36:37.685Z,100650.03
2023-05-12T03:39:08.996Z,100642.88
2023-05-12T03:41:40.352Z,100665.56
2023-05-12T03:44:13.404Z,100663.16
2023-05-12T03:46:43.605Z,100671.13
2023-05-12T03:49:13.846Z,100670.72
2023-05-12T03:51:43.825Z,100656.84
2023-05-12T03:54:15.506Z,100650.84
2023-05-12T03:56:45.815Z,100654.84
2023-05-12T03:59:18.191Z,100658.41
2023-05-12T04:01:49.467Z,100653.28
2023-05-12T04:04:20.850Z,100644.13
2023-05-12T04:06:52.231Z,100660.81
2023-05-12T04:09:22.565Z,100658.00
2023-05-12T04:11:52.464Z,100649.28
2023-05-12T04:14:39.037Z,100665.97
2023-05-12T04:17:09.610Z,100666.72
2023-05-12T04:19:39.413Z,100661.22
2023-05-12T04:22:09.637Z,100671.50
2023-05-12T04:24:41.232Z,100667.56
2023-05-12T04:27:12.877Z,100673.91
2023-05-12T04:29:47.682Z,100669.94
2023-05-12T04:32:18.548Z,100677.50
2023-05-12T04:34:51.932Z,100681.88
2023-05-12T04:37:22.754Z,100676.69
2023-05-12T04:39:55.684Z,100683.06
2023-05-12T04:42:25.873Z,100677.09
2023-05-12T04:44:58.431Z,100675.13
2023-05-12T04:47:29.804Z,100685.84
2023-05-12T04:50:04.890Z,100675.13
2023-05-12T04:52:36.134Z,100681.47
2023-05-12T04:55:06.501Z,100689.03
2023-05-12T04:57:37.752Z,100690.22
2023-05-12T05:00:12.114Z,100688.22
2023-05-12T05:02:42.582Z,100684.25
2023-05-12T05:05:13.407Z,100685.84
2023-05-12T05:07:47.999Z,100679.50
2023-05-12T05:10:18.020Z,100679.88
2023-05-12T05:12:48.581Z,100683.47
2023-05-12T05:15:22.201Z,100680.28
2023-05-12T05:17:52.446Z,100682.66
2023-05-12T05:20:27.918Z,100679.88
2023-05-12T05:23:00.076Z,100686.63
2023-05-12T05:25:30.100Z,100681.88
2023-05-12T05:28:00.172Z,100693.00
2023-05-12T05:30:33.017Z,100693.00
2023-05-12T05:33:06.991Z,100689.81
2023-05-12T05:35:38.971Z,100694.13
2023-05-12T05:38:08.967Z,100688.97
2023-05-12T05:40:48.883Z,100688.56
2023-05-12T05:43:23.320Z,100694.09
2023-05-12T05:45:56.169Z,100701.63
2023-05-12T05:48:26.750Z,100707.19
2023-05-12T05:50:58.166Z,100707.63
2023-05-12T05:53:29.137Z,100694.47
2023-05-12T05:55:59.074Z,100701.25
2023-05-12T05:58:28.996Z,100699.59
2023-05-12T06:01:02.026Z,100696.44
2023-05-12T06:03:33.795Z,100700.81
2023-05-12T06:06:04.165Z,100706.81
2023-05-12T06:08:34.084Z,100708.00
2023-05-12T06:11:03.825Z,100720.63
2023-05-12T06:13:34.872Z,100720.53
2023-05-12T06:16:08.522Z,100724.47
2023-05-12T06:18:41.331Z,100719.28
2023-05-12T06:21:11.190Z,100725.31
2023-05-12T06:23:43.842Z,100730.84
2023-05-12T06:26:16.066Z,100722.06
2023-05-12T06:28:46.206Z,100717.28
2023-05-12T06:31:20.514Z,100720.41
2023-05-12T06:33:53.344Z,100733.53
2023-05-12T06:36:23.459Z,100731.53
2023-05-12T06:38:55.406Z,100737.91
2023-05-12T06:41:27.957Z,100739.38
2023-05-12T06:44:00.538Z,100740.91
2023-05-12T06:46:33.540Z,100734.13
2023-05-12T06:49:04.874Z,100725.66
2023-05-12T06:51:39.632Z,100737.44
2023-05-12T06:54:13.634Z,100735.69
2023-05-12T06:56:43.873Z,100734.88
2023-05-12T06:59:15.896Z,100733.03
2023-05-12T07:01:50.747Z,100733.94
2023-05-12T07:04:21.507Z,100738.56
2023-05-12T07:06:52.329Z,100733.72
2023-05-12T07:09:22.072Z,100729.22
2023-05-12T07:11:52.181Z,100727.38
2023-05-12T07:14:25.064Z,100735.91
2023-05-12T07:16:57.939Z,100737.25
2023-05-12T07:19:28.397Z,100727.00
2023-05-12T07:21:58.925Z,100734.19
2023-05-12T07:24:29.231Z,100733.56
2023-05-12T07:26:59.610Z,100726.94
2023-05-12T07:29:29.830Z,100726.53
2023-05-12T07:32:02.927Z,100724.03
2023-05-12T07:34:35.396Z,100727.75
2023-05-12T07:37:06.667Z,100715.88
2023-05-12T07:39:36.748Z,100728.63
2023-05-12T07:42:08.113Z,100715.38
2023-05-12T07:44:38.856Z,100723.00
2023-05-12T07:47:11.657Z,100722.44
2023-05-12T07:49:42.038Z,100717.16
2023-05-12T07:52:13.347Z,100720.94
2023-05-12T07:54:43.307Z,100729.22
2023-05-12T07:57:13.001Z,100729.41
2023-05-12T07:59:44.913Z,100731.69
2023-05-12T08:02:17.770Z,100724.72
2023-05-12T08:04:47.701Z,100726.28
2023-05-12T08:07:17.794Z,100719.44
2023-05-12T08:09:49.447Z,100729.19
2023-05-12T08:12:19.527Z,100712.66
2023-05-12T08:14:49.681Z,100727.44
2023-05-12T08:17:22.273Z,100720.75
2023-05-12T08:19:52.277Z,100725.19
2023-05-12T08:22:26.199Z,100722.09
2023-05-12T08:24:57.176Z,100734.44
2023-05-12T08:27:27.075Z,100722.97
2023-05-12T08:30:01.071Z,100726.78
2023-05-12T08:32:35.663Z,100718.94
2023-05-12T08:35:05.587Z,100728.72
2023-05-12T08:37:38.426Z,100727.66
2023-05-12T08:40:16.902Z,100718.34
2023-05-12T08:42:56.007Z,100717.63
2023-05-12T08:45:28.081Z,100722.16
2023-05-12T08:48:05.216Z,100724.84
2023-05-12T08:50:36.615Z,100730.66
2023-05-12T08:53:07.554Z,100733.91
2023-05-12T08:55:38.529Z,100725.34
2023-05-12T08:58:09.664Z,100729.44
2023-05-12T09:00:42.919Z,100726.28
2023-05-12T09:03:17.451Z,100722.69
2023-05-12T09:05:48.300Z,100737.94
2023-05-12T09:08:18.740Z,100741.31
2023-05-12T09:10:54.937Z,100744.41
2023-05-12T09:13:44.819Z,100746.00
2023-05-12T09:16:28.601Z,100738.88
2023-05-12T09:19:08.890Z,100738.47
2023-05-12T09:22:12.092Z,100734.09
2023-05-12T09:24:51.096Z,100736.31
2023-05-12T09:27:44.178Z,100742.09
2023-05-12T09:31:01.449Z,100736.34
2023-05-12T09:33:47.920Z,100733.66
2023-05-12T09:36:51.183Z,100749.03
2023-05-12T09:39:36.702Z,100737.94
2023-05-12T09:42:16.694Z,100738.09
2023-05-12T09:44:57.477Z,100735.19
2023-05-12T09:47:46.232Z,100741.88
2023-05-12T09:50:40.854Z,100746.56
2023-05-12T09:53:25.170Z,100749.03
2023-05-12T09:56:06.349Z,100737.06
2023-05-12T09:58:48.695Z,100731.53
2023-05-12T10:01:45.729Z,100735.50
2023-05-12T10:04:20.351Z,100729.97
2023-05-12T10:07:04.968Z,100734.50
2023-05-12T10:09:46.453Z,100737.84
2023-05-12T10:12:40.602Z,100752.28
2023-05-12T10:15:28.796Z,100748.16
2023-05-12T10:18:03.545Z,100728.25
2023-05-12T10:20:36.356Z,100735.81
2023-05-12T10:23:07.495Z,100725.38
2023-05-12T10:25:40.611Z,100741.47
2023-05-12T10:28:11.914Z,100739.41
2023-05-12T10:30:43.586Z,100734.34
2023-05-12T10:33:13.589Z,100732.78
2023-05-12T10:35:48.606Z,100745.09
2023-05-12T10:38:20.383Z,100734.28
2023-05-12T10:41:02.225Z,100726.88
2023-05-12T10:43:42.343Z,100733.38
2023-05-12T10:46:19.589Z,100728.09
2023-05-12T10:49:01.126Z,100736.56
2023-05-12T10:51:33.473Z,100733.41
2023-05-12T10:54:05.042Z,100730.78
2023-05-12T10:56:47.331Z,100721.16
2023-05-12T10:59:20.479Z,100718.19
2023-05-12T11:02:02.083Z,100709.72
2023-05-12T11:04:45.214Z,100719.19
2023-05-12T11:07:24.833Z,100715.03
2023-05-12T11:09:59.687Z,100714.34
2023-05-12T11:12:36.574Z,100708.66
2023-05-12T11:15:10.782Z,100701.97
2023-05-12T11:17:44.229Z,100712.03
2023-05-12T11:20:24.981Z,100722.50
2023-05-12T11:22:55.332Z,100717.84
2023-05-12T11:25:25.630Z,100718.97
2023-05-12T11:27:59.717Z,100713.47
2023-05-12T11:30:30.388Z,100718.72
2023-05-12T11:33:05.799Z,100712.06
2023-05-12T11:35:36.246Z,100706.09
2023-05-12T11:38:06.278Z,100704.59
2023-05-12T11:40:38.816Z,100712.47
2023-05-12T11:43:16.149Z,100723.09
2023-05-12T11:45:48.200Z,100722.66
2023-05-12T11:48:18.586Z,100727.75
2023-05-12T11:50:50.240Z,100712.56
2023-05-12T11:53:22.420Z,100716.81
2023-05-12T11:55:53.965Z,100699.13
2023-05-12T11:58:33.049Z,100706.91
2023-05-12T12:01:13.166Z,100706.59
2023-05-12T12:03:49.439Z,100700.34
2023-05-12T12:06:19.757Z,100706.31
2023-05-12T12:08:53.821Z,100706.25
2023-05-12T12:11:24.796Z,100718.16
2023-05-12T12:14:00.169Z,100724.63
2023-05-12T12:16:32.143Z,100716.53
2023-05-12T12:19:02.223Z,100727.53
2023-05-12T12:21:32.281Z,100723.59
2023-05-12T12:24:04.122Z,100730.81
2023-05-12T12:26:34.123Z,100724.19
2023-05-12T12:29:07.831Z,100725.56
2023-05-12T12:31:38.356Z,100710.44
2023-05-12T12:34:09.410Z,100722.66
2023-05-12T12:36:39.822Z,100728.78
2023-05-12T12:39:11.776Z,100725.16
2023-05-12T12:41:42.777Z,100735.22
2023-05-12T12:44:15.934Z,100733.69
2023-05-12T12:46:45.950Z,100738.66
2023-05-12T12:49:15.996Z,100737.16
2023-05-12T12:51:47.119Z,100725.94
2023-05-12T12:54:17.817Z,100715.06
2023-05-12T12:56:47.738Z,100714.16
2023-05-12T12:59:20.636Z,100718.16
2023-05-12T13:01:50.831Z,100718.34
2023-05-12T13:04:23.785Z,100714.38
2023-05-12T13:06:53.581Z,100715.97
2023-05-12T13:09:23.452Z,100712.63
2023-05-12T13:11:53.633Z,100718.34
2023-05-12T13:14:26.490Z,100729.59
2023-05-12T13:16:56.433Z,100729.09
2023-05-12T13:19:26.328Z,100720.75
2023-05-12T13:21:56.240Z,100726.44
2023-05-12T13:24:27.087Z,100723.53
2023-05-12T13:26:57.042Z,100717.28
2023-05-12T13:29:29.581Z,100730.47
2023-05-12T13:32:00.492Z,100717.38
2023-05-12T13:34:30.404Z,100710.34
2023-05-12T13:37:03.146Z,100717.38
2023-05-12T13:39:33.416Z,100710.19
2023-05-12T13:42:03.463Z,100714.09
2023-05-12T13:44:38.183Z,100710.88
2023-05-12T13:47:10.557Z,100704.53
2023-05-12T13:49:40.968Z,100702.31
2023-05-12T13:52:14.217Z,100699.44
2023-05-12T13:54:44.638Z,100714.03
2023-05-12T13:57:35.822Z,100701.81
2023-05-12T14:00:14.093Z,100709.09
2023-05-12T14:02:59.212Z,100707.88
2023-05-12T14:05:39.027Z,100710.47
2023-05-12T14:08:19.717Z,100710.13
2023-05-12T14:10:54.470Z,100705.66
2023-05-12T14:13:29.228Z,100701.59
2023-05-12T14:16:03.943Z,100700.34
2023-05-12T14:18:43.255Z,100689.63
2023-05-12T14:21:22.811Z,100688.19
2023-05-12T14:23:57.161Z,100688.34
2023-05-12T14:26:29.543Z,100686.28
2023-05-12T14:29:03.327Z,100704.94
2023-05-12T14:31:44.353Z,100705.19
2023-05-12T14:34:25.612Z,100702.16
2023-05-12T14:37:07.455Z,100701.13
2023-05-12T14:39:37.999Z,100703.09
2023-05-12T14:42:13.623Z,100698.16
2023-05-12T14:44:48.604Z,100698.03
2023-05-12T14:47:30.360Z,100697.69
2023-05-12T14:50:07.228Z,100699.81
2023-05-12T14:53:03.794Z,100700.25
2023-05-12T14:55:40.311Z,100688.41
2023-05-12T14:58:37.111Z,100700.03
2023-05-12T15:01:18.623Z,100682.63
2023-05-12T15:04:02.595Z,100680.59
2023-05-12T15:06:47.148Z,100676.69
2023-05-12T15:09:21.620Z,100678.41
2023-05-12T15:12:02.470Z,100684.75
2023-05-12T15:14:38.792Z,100685.84
2023-05-12T15:17:17.965Z,100699.56
2023-05-12T15:19:56.823Z,100692.84
2023-05-12T15:25:30.317Z,100684.00
2023-05-12T15:28:29.270Z,100672.03
2023-05-12T15:31:28.302Z,100674.69
2023-05-12T15:34:16.780Z,100676.63
2023-05-12T15:37:01.434Z,100675.50
2023-05-12T15:39:41.811Z,100675.63
2023-05-12T15:42:22.377Z,100683.44
2023-05-12T15:45:04.143Z,100678.78
2023-05-12T15:47:43.252Z,100664.59
2023-05-12T15:50:54.375Z,100671.44
2023-05-12T15:53:32.847Z,100682.66
2023-05-12T15:56:15.513Z,100688.06
2023-05-12T15:58:48.036Z,100692.69
2023-05-12T16:01:19.611Z,100691.25
2023-05-12T16:03:56.286Z,100695.72
2023-05-12T16:06:33.242Z,100692.50
2023-05-12T16:09:17.644Z,100692.50
2023-05-12T16:11:49.035Z,100703.56
2023-05-12T16:14:19.269Z,100699.81
2023-05-12T16:16:49.862Z,100693.06
2023-05-12T16:19:20.592Z,100694.63
2023-05-12T16:21:50.673Z,100692.47
2023-05-12T16:24:23.244Z,100689.84
2023-05-12T16:26:53.035Z,100687.78
2023-05-12T16:29:22.858Z,100673.03
2023-05-12T16:31:52.888Z,100680.75
2023-05-12T16:34:22.850Z,100680.88
2023-05-12T16:36:53.250Z,100685.59
2023-05-12T16:39:28.768Z,100690.94
2023-05-12T16:42:00.627Z,100677.91
2023-05-12T16:44:41.313Z,100681.66
2023-05-12T16:47:11.608Z,100683.25
2023-05-12T16:49:42.728Z,100681.38
2023-05-12T16:52:17.139Z,100677.25
2023-05-12T16:54:50.162Z,100674.91
2023-05-12T16:57:20.454Z,100681.50
2023-05-12T16:59:51.253Z,100684.81
2023-05-12T17:02:21.385Z,100687.56
2023-05-12T17:04:51.248Z,100691.97
2023-05-12T17:07:21.316Z,100694.75
2023-05-12T17:09:53.878Z,100684.81
2023-05-12T17:12:23.901Z,100684.47
2023-05-12T17:15:03.801Z,100692.78
2023-05-12T17:17:37.612Z,100686.16
2023-05-12T17:20:09.515Z,100695.34
2023-05-12T17:22:44.434Z,100702.22
2023-05-12T17:25:17.610Z,100694.47
2023-05-12T17:27:48.347Z,100706.41
2023-05-12T17:30:21.760Z,100706.47
2023-05-12T17:32:51.993Z,100705.91
2023-05-12T17:35:22.719Z,100705.44
2023-05-12T17:37:55.892Z,100711.41
2023-05-12T17:40:28.886Z,100714.03
2023-05-12T17:42:58.830Z,100715.72
2023-05-12T17:45:28.654Z,100713.63
2023-05-12T17:47:58.810Z,100720.47
2023-05-12T17:50:29.178Z,100719.28
2023-05-12T17:52:59.273Z,100724.66
2023-05-12T17:55:32.348Z,100715.53
2023-05-12T17:58:02.445Z,100721.97
2023-05-12T18:00:33.786Z,100723.47
2023-05-12T18:03:04.255Z,100728.63
2023-05-12T18:05:35.486Z,100722.81
2023-05-12T18:08:07.395Z,100726.56
2023-05-12T18:10:41.619Z,100733.44
2023-05-12T18:13:11.833Z,100734.13
2023-05-12T18:15:42.076Z,100728.84
2023-05-12T18:18:12.605Z,100734.38
2023-05-12T18:20:42.625Z,100731.44
2023-05-12T18:23:12.636Z,100730.91
2023-05-12T18:25:45.588Z,100724.84
2023-05-12T18:28:16.045Z,100736.34
2023-05-12T18:30:47.726Z,100742.88
2023-05-12T18:33:18.044Z,100738.84
2023-05-12T18:35:49.056Z,100742.50
2023-05-12T18:38:19.453Z,100741.03
2023-05-12T18:40:54.898Z,100746.91
2023-05-12T18:43:30.690Z,100755.31
2023-05-12T18:46:01.280Z,100745.41
2023-05-12T18:48:34.446Z,100762.72
2023-05-12T18:51:05.835Z,100757.19
2023-05-12T18:53:36.090Z,100760.84
2023-05-12T18:56:09.468Z,100760.47
2023-05-12T18:58:39.724Z,100761.09
2023-05-12T19:01:17.417Z,100762.00
2023-05-12T19:03:49.177Z,100758.25
2023-05-12T19:06:20.320Z,100761.69
2023-05-12T19:08:54.736Z,100770.84
2023-05-12T19:11:27.707Z,100772.59
2023-05-12T19:13:59.085Z,100772.16
2023-05-12T19:16:33.698Z,100782.72
2023-05-12T19:19:06.676Z,100784.03
2023-05-12T19:21:39.453Z,100776.47
2023-05-12T19:24:10.820Z,100786.66
2023-05-12T19:26:43.604Z,100794.19
2023-05-12T19:29:20.251Z,100794.69
2023-05-12T19:31:53.473Z,100782.75
2023-05-12T19:34:27.394Z,100801.25
2023-05-12T19:37:08.542Z,100790.44
2023-05-12T19:39:42.977Z,100779.09
2023-05-12T19:42:16.280Z,100796.28
2023-05-12T19:44:48.340Z,100792.47
2023-05-12T19:47:20.503Z,100790.19
2023-05-12T19:49:54.117Z,100796.31
2023-05-12T19:52:31.500Z,100808.03
2023-05-12T19:55:02.230Z,100802.50
2023-05-12T19:57:35.721Z,100801.53
2023-05-12T20:00:06.374Z,100806.44
2023-05-12T20:02:42.748Z,100790.38
2023-05-12T20:05:16.098Z,100795.53
2023-05-12T20:07:46.563Z,100800.44
2023-05-12T20:10:19.269Z,100807.72
2023-05-12T20:12:52.053Z,100794.94
2023-05-12T20:15:25.522Z,100812.34
2023-05-12T20:17:58.958Z,100802.63
2023-05-12T20:20:29.617Z,100812.59
2023-05-12T20:23:03.076Z,100811.81
2023-05-12T20:25:36.474Z,100807.13
2023-05-12T20:28:10.063Z,100808.03
2023-05-12T20:30:40.440Z,100813.63
2023-05-12T20:33:10.716Z,100816.91
2023-05-12T20:35:42.246Z,100823.78
2023-05-12T20:38:16.516Z,100818.69
2023-05-12T20:40:46.979Z,100821.94
2023-05-12T20:43:27.136Z,100822.72
2023-05-12T20:45:57.334Z,100827.19
2023-05-12T20:48:28.373Z,100821.28
2023-05-12T20:51:01.740Z,100819.75
2023-05-12T20:53:34.328Z,100818.22
2023-05-12T20:56:04.705Z,100816.75
2023-05-12T20:58:43.792Z,100831.00
2023-05-12T21:01:18.161Z,100820.03
2023-05-12T21:03:55.610Z,100825.97
2023-05-12T21:06:30.529Z,100831.56
2023-05-12T21:09:02.761Z,100823.31
2023-05-12T21:11:32.843Z,100825.84
2023-05-12T21:14:05.863Z,100841.84
2023-05-12T21:16:38.278Z,100823.59
2023-05-12T21:19:09.490Z,100810.97
2023-05-12T21:21:40.216Z,100827.69
2023-05-12T21:24:16.224Z,100832.97
2023-05-12T21:26:46.743Z,100823.09
2023-05-12T21:29:20.529Z,100834.75
2023-05-12T21:31:53.670Z,100836.34
2023-05-12T21:34:25.056Z,100830.91
2023-05-12T21:36:55.608Z,100827.44
2023-05-12T21:39:28.847Z,100839.44
2023-05-12T21:42:06.115Z,100840.72
2023-05-12T21:44:39.606Z,100836.44
2023-05-12T21:47:09.871Z,100841.94
2023-05-12T21:49:46.136Z,100832.47
2023-05-12T21:52:19.213Z,100828.97
2023-05-12T21:54:55.724Z,100839.38
2023-05-12T21:57:29.109Z,100838.13
2023-05-12T22:00:05.232Z,100843.09
2023-05-12T22:02:39.778Z,100825.22
2023-05-12T22:05:14.752Z,100833.16
2023-05-12T22:07:47.014Z,100836.03
2023-05-12T22:10:18.266Z,100837.63
2023-05-12T22:12:49.919Z,100834.41
2023-05-12T22:15:24.339Z,100846.03
2023-05-12T22:17:55.942Z,100836.91
2023-05-12T22:20:26.451Z,100835.41
2023-05-12T22:22:57.091Z,100832.16
2023-05-12T22:25:27.412Z,100842.53
2023-05-12T22:27:57.427Z,100834.59
2023-05-12T22:30:31.202Z,100838.19
2023-05-12T22:33:01.320Z,100842.69
2023-05-12T22:35:31.387Z,100843.44
2023-05-12T22:38:01.575Z,100853.78
2023-05-12T22:40:34.311Z,100837.97
2023-05-12T22:43:04.371Z,100846.66
2023-05-12T22:45:37.028Z,100845.88
2023-05-12T22:48:07.455Z,100846.41
2023-05-12T22:50:38.406Z,100842.78
2023-05-12T22:53:08.421Z,100858.72
2023-05-12T22:55:39.214Z,100859.03
2023-05-12T22:58:10.594Z,100853.91
2023-05-12T23:00:43.161Z,100860.34
2023-05-12T23:03:16.680Z,100860.69
2023-05-12T23:05:46.865Z,100863.97
2023-05-12T23:08:16.699Z,100862.34
2023-05-12T23:10:49.884Z,100856.47
2023-05-12T23:13:19.992Z,100851.28
2023-05-12T23:15:53.804Z,100868.38
2023-05-12T23:18:24.252Z,100845.34
2023-05-12T23:20:55.112Z,100854.84
2023-05-12T23:23:25.039Z,100848.91
2023-05-12T23:25:55.325Z,100846.59
2023-05-12T23:28:25.428Z,100850.91
2023-05-12T23:30:58.314Z,100852.50
2023-05-12T23:33:28.450Z,100847.72
2023-05-12T23:35:59.858Z,100855.69
2023-05-12T23:38:29.737Z,100847.38
2023-05-12T23:40:59.556Z,100852.53
2023-05-12T23:43:29.740Z,100845.38
2023-05-12T23:46:02.364Z,100847.09
2023-05-12T23:48:32.701Z,100842.72
2023-05-12T23:51:02.499Z,100853.41
2023-05-12T23:53:32.908Z,100851.84
2023-05-12T23:56:05.977Z,100851.50
2023-05-12T23:58:36.314Z,100844.72
